createdAt,value
2018-10-16T00:00:15.641Z,100978.73
2018-10-16T00:02:45.387Z,100981.73
2018-10-16T00:05:14.626Z,100983.45
2018-10-16T00:07:43.585Z,100991.20
2018-10-16T00:10:12.588Z,100988.61
2018-10-16T00:12:41.546Z,100992.05
2018-10-16T00:15:10.893Z,100987.34
2018-10-16T00:17:39.866Z,100994.62
2018-10-16T00:20:08.868Z,100995.50
2018-10-16T00:22:37.848Z,100996.36
2018-10-16T00:25:09.790Z,100985.20
2018-10-16T00:27:38.754Z,100991.20
2018-10-16T00:30:07.767Z,100990.77
2018-10-16T00:32:36.775Z,100996.36
2018-10-16T00:35:06.019Z,100998.94
2018-10-16T00:37:35.011Z,101000.19
2018-10-16T00:40:04.043Z,100998.48
2018-10-16T00:42:33.054Z,101003.20
2018-10-16T00:45:02.063Z,101004.47
2018-10-16T00:47:31.041Z,101004.48
2018-10-16T00:50:00.079Z,101007.92
2018-10-16T00:52:29.066Z,101005.34
2018-10-16T00:54:58.125Z,101002.33
2018-10-16T00:57:27.103Z,101001.89
2018-10-16T00:59:56.127Z,101007.03
2018-10-16T01:02:25.140Z,101013.50
2018-10-16T01:04:54.143Z,101015.64
2018-10-16T01:07:23.141Z,101020.80
2018-10-16T01:09:52.179Z,101019.48
2018-10-16T01:12:21.267Z,101017.77
2018-10-16T01:14:50.339Z,101018.61
2018-10-16T01:17:19.343Z,101017.34
2018-10-16T01:19:48.334Z,101021.20
2018-10-16T01:22:17.310Z,101021.20
2018-10-16T01:24:46.321Z,101026.75
2018-10-16T01:27:15.294Z,101022.03
2018-10-16T01:29:44.288Z,101031.05
2018-10-16T01:32:13.298Z,101032.76
2018-10-16T01:34:42.294Z,101032.30
2018-10-16T01:37:11.359Z,101031.45
2018-10-16T01:39:40.360Z,101024.58
2018-10-16T01:42:09.370Z,101027.16
2018-10-16T01:44:38.367Z,101036.14
2018-10-16T01:47:07.394Z,101044.30
2018-10-16T01:49:36.423Z,101044.23
2018-10-16T01:52:05.444Z,101039.89
2018-10-16T01:54:34.418Z,101036.91
2018-10-16T01:57:03.414Z,101036.53
2018-10-16T01:59:32.411Z,101037.84
2018-10-16T02:02:01.414Z,101038.77
2018-10-16T02:04:30.465Z,101038.34
2018-10-16T02:06:59.468Z,101042.23
2018-10-16T02:09:28.464Z,101044.81
2018-10-16T02:11:57.487Z,101043.95
2018-10-16T02:14:26.472Z,101049.52
2018-10-16T02:16:55.511Z,101051.67
2018-10-16T02:19:24.491Z,101060.72
2018-10-16T02:21:53.486Z,101063.73
2018-10-16T02:24:22.454Z,101062.84
2018-10-16T02:26:51.499Z,101066.67
2018-10-16T02:29:20.450Z,101068.83
2018-10-16T02:31:49.430Z,101065.38
2018-10-16T02:34:18.411Z,101069.70
2018-10-16T02:36:47.420Z,101078.70
2018-10-16T02:39:16.386Z,101070.09
2018-10-16T02:41:45.361Z,101073.53
2018-10-16T02:44:14.349Z,101079.98
2018-10-16T02:46:43.328Z,101082.10
2018-10-16T02:49:12.295Z,101084.25
2018-10-16T02:51:41.306Z,101074.80
2018-10-16T02:54:10.266Z,101081.20
2018-10-16T02:56:39.250Z,101086.27
2018-10-16T02:59:08.212Z,101080.28
2018-10-16T03:01:37.211Z,101089.33
2018-10-16T03:04:06.183Z,101090.64
2018-10-16T03:06:35.170Z,101089.80
2018-10-16T03:09:04.890Z,101087.19
2018-10-16T03:11:33.860Z,101082.06
2018-10-16T03:14:02.838Z,101078.20
2018-10-16T03:16:32.787Z,101076.08
2018-10-16T03:19:02.831Z,101076.11
2018-10-16T03:21:32.755Z,101069.23
2018-10-16T03:24:02.797Z,101060.18
2018-10-16T03:26:32.834Z,101089.39
2018-10-16T03:29:02.902Z,101091.94
2018-10-16T03:31:32.854Z,101094.91
2018-10-16T03:34:02.890Z,101088.41
2018-10-16T03:36:32.830Z,101087.13
2018-10-16T03:39:01.897Z,101085.45
2018-10-16T03:41:30.889Z,101085.48
2018-10-16T03:44:01.335Z,101086.39
2018-10-16T03:46:30.818Z,101086.83
2018-10-16T03:48:59.814Z,101084.69
2018-10-16T03:51:28.803Z,101092.44
2018-10-16T03:53:57.818Z,101086.42
2018-10-16T03:56:27.398Z,101094.58
2018-10-16T03:58:56.438Z,101092.88
2018-10-16T04:01:26.518Z,101094.58
2018-10-16T04:03:55.509Z,101090.27
2018-10-16T04:06:24.470Z,101095.88
2018-10-16T04:08:53.702Z,101092.85
2018-10-16T04:11:22.699Z,101097.59
2018-10-16T04:13:52.767Z,101104.88
2018-10-16T04:16:21.738Z,101101.46
2018-10-16T04:18:50.691Z,101100.58
2018-10-16T04:21:19.651Z,101104.87
2018-10-16T04:23:48.615Z,101102.25
2018-10-16T04:26:17.575Z,101103.52
2018-10-16T04:28:46.540Z,101104.83
2018-10-16T04:31:15.478Z,101102.28
2018-10-16T04:33:44.453Z,101103.12
2018-10-16T04:36:13.431Z,101105.23
2018-10-16T04:38:42.387Z,101101.39
2018-10-16T04:41:11.343Z,101100.53
2018-10-16T04:43:40.381Z,101103.10
2018-10-16T04:46:09.315Z,101103.95
2018-10-16T04:48:38.279Z,101112.56
2018-10-16T04:51:07.259Z,101111.67
2018-10-16T04:53:36.224Z,101110.80
2018-10-16T04:56:05.350Z,101118.52
2018-10-16T04:58:34.349Z,101117.66
2018-10-16T05:01:03.283Z,101115.09
2018-10-16T05:03:32.264Z,101110.32
2018-10-16T05:06:01.352Z,101112.05
2018-10-16T05:08:30.515Z,101118.85
2018-10-16T05:10:59.796Z,101123.59
2018-10-16T05:13:28.765Z,101124.90
2018-10-16T05:15:57.727Z,101121.87
2018-10-16T05:18:26.751Z,101123.61
2018-10-16T05:20:55.715Z,101124.46
2018-10-16T05:23:24.739Z,101115.41
2018-10-16T05:25:53.702Z,101132.23
2018-10-16T05:28:22.709Z,101127.95
2018-10-16T05:30:51.734Z,101131.83
2018-10-16T05:33:20.666Z,101132.23
2018-10-16T05:35:49.669Z,101142.02
2018-10-16T05:38:18.658Z,101139.88
2018-10-16T05:40:47.614Z,101145.89
2018-10-16T05:43:16.568Z,101143.77
2018-10-16T05:45:46.643Z,101147.68
2018-10-16T05:48:15.716Z,101151.97
2018-10-16T05:50:45.091Z,101150.27
2018-10-16T05:53:14.058Z,101154.59
2018-10-16T05:55:43.051Z,101152.45
2018-10-16T05:58:12.010Z,101156.33
2018-10-16T06:00:42.416Z,101160.20
2018-10-16T06:03:11.412Z,101167.06
2018-10-16T06:05:40.496Z,101159.77
2018-10-16T06:08:09.427Z,101159.81
2018-10-16T06:10:38.459Z,101164.54
2018-10-16T06:13:07.425Z,101171.83
2018-10-16T06:15:36.438Z,101172.67
2018-10-16T06:18:05.598Z,101178.69
2018-10-16T06:20:34.603Z,101176.14
2018-10-16T06:23:03.570Z,101181.77
2018-10-16T06:25:32.538Z,101183.06
2018-10-16T06:28:13.811Z,101185.25
2018-10-16T06:30:42.805Z,101192.13
2018-10-16T06:33:12.114Z,101187.85
2018-10-16T06:35:41.104Z,101186.15
2018-10-16T06:38:10.075Z,101194.36
2018-10-16T06:40:39.123Z,101199.57
2018-10-16T06:43:08.087Z,101204.31
2018-10-16T06:45:37.071Z,101200.45
2018-10-16T06:48:06.337Z,101207.33
2018-10-16T06:50:35.282Z,101212.07
2018-10-16T06:53:04.316Z,101207.78
2018-10-16T06:55:33.307Z,101214.66
2018-10-16T06:58:02.319Z,101215.53
2018-10-16T07:00:31.287Z,101215.53
2018-10-16T07:03:00.303Z,101224.11
2018-10-16T07:05:29.295Z,101222.84
2018-10-16T07:07:58.271Z,101226.28
2018-10-16T07:10:27.258Z,101227.56
2018-10-16T07:12:56.238Z,101223.69
2018-10-16T07:15:25.219Z,101223.70
2018-10-16T07:17:54.187Z,101227.14
2018-10-16T07:20:23.162Z,101234.83
2018-10-16T07:22:52.135Z,101235.73
2018-10-16T07:25:21.084Z,101238.31
2018-10-16T07:27:50.159Z,101234.91
2018-10-16T07:30:19.115Z,101239.18
2018-10-16T07:32:48.068Z,101233.63
2018-10-16T07:35:17.020Z,101229.74
2018-10-16T07:37:46.055Z,101237.05
2018-10-16T07:40:15.259Z,101235.34
2018-10-16T07:42:44.230Z,101248.67
2018-10-16T07:45:13.196Z,101246.94
2018-10-16T07:47:42.161Z,101251.25
2018-10-16T07:50:11.949Z,101262.05
2018-10-16T07:52:40.978Z,101259.03
2018-10-16T07:55:12.997Z,101263.34
2018-10-16T07:57:42.232Z,101265.50
2018-10-16T08:00:12.416Z,101271.51
2018-10-16T08:02:42.413Z,101269.34
2018-10-16T08:05:12.279Z,101273.66
2018-10-16T08:07:41.727Z,101273.64
2018-10-16T08:10:12.494Z,101274.08
2018-10-16T08:12:41.634Z,101274.06
2018-10-16T08:15:10.997Z,101281.83
2018-10-16T08:17:40.655Z,101284.83
2018-10-16T08:20:09.606Z,101276.67
2018-10-16T08:22:39.002Z,101287.00
2018-10-16T08:25:07.952Z,101287.83
2018-10-16T08:27:37.018Z,101293.45
2018-10-16T08:30:07.811Z,101293.86
2018-10-16T08:32:36.649Z,101288.70
2018-10-16T08:35:05.687Z,101283.09
2018-10-16T08:37:51.551Z,101287.80
2018-10-16T08:40:20.487Z,101286.52
2018-10-16T08:44:04.756Z,101290.80
2018-10-16T08:46:45.235Z,101292.97
2018-10-16T08:49:25.771Z,101293.39
2018-10-16T08:51:56.256Z,101298.95
2018-10-16T08:54:25.304Z,101303.70
2018-10-16T08:56:54.272Z,101298.09
2018-10-16T08:59:23.276Z,101303.71
2018-10-16T09:01:52.230Z,101301.11
2018-10-16T09:04:21.191Z,101304.97
2018-10-16T09:06:50.237Z,101306.25
2018-10-16T09:09:19.407Z,101307.97
2018-10-16T09:11:49.312Z,101306.71
2018-10-16T09:14:18.486Z,101299.36
2018-10-16T09:16:47.470Z,101301.95
2018-10-16T09:19:16.439Z,101298.48
2018-10-16T09:21:45.379Z,101298.90
2018-10-16T09:24:14.351Z,101301.03
2018-10-16T09:26:43.349Z,101306.17
2018-10-16T09:29:12.298Z,101302.27
2018-10-16T09:31:41.249Z,101303.09
2018-10-16T09:34:10.199Z,101304.78
2018-10-16T09:36:39.131Z,101306.48
2018-10-16T09:39:10.487Z,101302.60
2018-10-16T09:41:39.511Z,101306.05
2018-10-16T09:44:08.527Z,101303.90
2018-10-16T09:46:38.270Z,101305.59
2018-10-16T09:49:07.268Z,101310.28
2018-10-16T09:51:36.250Z,101307.66
2018-10-16T09:54:05.371Z,101304.17
2018-10-16T09:56:34.470Z,101305.03
2018-10-16T09:59:03.487Z,101310.64
2018-10-16T10:01:37.758Z,101304.23
2018-10-16T10:04:06.773Z,101305.93
2018-10-16T10:06:35.780Z,101305.93
2018-10-16T10:09:07.611Z,101307.19
2018-10-16T10:11:36.588Z,101309.34
2018-10-16T10:14:05.951Z,101309.74
2018-10-16T10:16:34.972Z,101306.72
2018-10-16T10:19:05.551Z,101298.92
2018-10-16T10:21:34.518Z,101301.08
2018-10-16T10:24:03.526Z,101300.17
2018-10-16T10:26:32.483Z,101302.33
2018-10-16T10:29:01.422Z,101302.29
2018-10-16T10:31:30.440Z,101300.95
2018-10-16T10:33:59.573Z,101303.98
2018-10-16T10:36:28.536Z,101305.23
2018-10-16T10:38:57.491Z,101313.39
2018-10-16T10:41:26.467Z,101316.84
2018-10-16T10:43:55.405Z,101314.21
2018-10-16T10:46:24.351Z,101314.20
2018-10-16T10:48:53.290Z,101305.53
2018-10-16T10:51:22.537Z,101305.91
2018-10-16T10:53:51.239Z,101307.16
2018-10-16T10:56:20.227Z,101310.18
2018-10-16T10:58:49.183Z,101244.84
2018-10-16T11:01:18.142Z,101307.92
2018-10-16T11:03:47.146Z,101306.57
2018-10-16T11:06:16.111Z,101312.08
2018-10-16T11:08:45.046Z,101309.00
2018-10-16T11:11:14.055Z,101310.28
2018-10-16T11:13:43.018Z,101314.98
2018-10-16T11:16:13.356Z,101308.48
2018-10-16T11:18:42.342Z,101314.44
2018-10-16T11:21:11.339Z,101308.33
2018-10-16T11:23:40.312Z,101309.12
2018-10-16T11:26:09.375Z,101302.09
2018-10-16T11:28:38.508Z,101301.57
2018-10-16T11:31:07.563Z,101301.88
2018-10-16T11:33:36.661Z,101300.94
2018-10-16T11:36:05.643Z,101304.77
2018-10-16T11:38:34.715Z,101295.24
2018-10-16T11:41:03.917Z,101296.95
2018-10-16T11:43:32.903Z,101300.84
2018-10-16T11:46:01.887Z,101300.83
2018-10-16T11:48:30.858Z,101308.53
2018-10-16T11:50:59.984Z,101305.94
2018-10-16T11:53:29.781Z,101308.92
2018-10-16T11:56:00.717Z,101308.05
2018-10-16T11:58:29.687Z,101311.50
2018-10-16T12:00:58.672Z,101307.18
2018-10-16T12:03:27.735Z,101305.54
2018-10-16T12:05:56.697Z,101308.98
2018-10-16T12:08:25.686Z,101310.73
2018-10-16T12:10:54.689Z,101314.63
2018-10-16T12:13:23.693Z,101316.45
2018-10-16T12:15:52.656Z,101317.75
2018-10-16T12:18:24.804Z,101318.14
2018-10-16T12:21:00.990Z,101315.05
2018-10-16T12:23:29.953Z,101318.00
2018-10-16T12:25:59.094Z,101311.92
2018-10-16T12:28:28.083Z,101313.11
2018-10-16T12:30:58.102Z,101318.64
2018-10-16T12:33:27.028Z,101314.72
2018-10-16T12:35:55.969Z,101315.11
2018-10-16T12:38:24.941Z,101317.36
2018-10-16T12:40:53.935Z,101315.27
2018-10-16T12:43:23.000Z,101313.66
2018-10-16T12:45:51.899Z,101311.02
2018-10-16T12:48:20.895Z,101316.20
2018-10-16T12:50:49.902Z,101316.12
2018-10-16T12:53:18.876Z,101320.81
2018-10-16T12:55:47.803Z,101318.94
2018-10-16T12:58:16.771Z,101325.91
2018-10-16T13:00:45.712Z,101321.03
2018-10-16T13:03:14.756Z,101325.76
2018-10-16T13:05:43.740Z,101324.38
2018-10-16T13:08:12.773Z,101326.39
2018-10-16T13:10:41.680Z,101331.94
2018-10-16T13:13:10.651Z,101334.03
2018-10-16T13:15:39.703Z,101330.97
2018-10-16T13:18:08.674Z,101334.38
2018-10-16T13:20:37.651Z,101329.17
2018-10-16T13:23:06.721Z,101323.55
2018-10-16T13:25:35.670Z,101330.47
2018-10-16T13:28:04.696Z,101334.37
2018-10-16T13:30:33.639Z,101329.11
2018-10-16T13:33:02.589Z,101322.67
2018-10-16T13:35:31.532Z,101320.95
2018-10-16T13:38:00.558Z,101324.34
2018-10-16T13:40:29.514Z,101320.47
2018-10-16T13:42:58.482Z,101322.16
2018-10-16T13:45:27.426Z,101322.95
2018-10-16T13:47:56.381Z,101324.63
2018-10-16T13:50:25.352Z,101322.02
2018-10-16T13:52:54.384Z,101324.23
2018-10-16T13:55:23.346Z,101317.84
2018-10-16T13:57:52.312Z,101327.37
2018-10-16T14:00:21.762Z,101326.05
2018-10-16T14:02:51.958Z,101329.91
2018-10-16T14:05:20.970Z,101326.36
2018-10-16T14:07:49.921Z,101333.27
2018-10-16T14:10:18.961Z,101331.98
2018-10-16T14:12:48.563Z,101328.96
2018-10-16T14:15:18.476Z,101331.17
2018-10-16T14:17:47.503Z,101330.73
2018-10-16T14:20:16.588Z,101336.83
2018-10-16T14:22:45.532Z,101335.16
2018-10-16T14:25:15.564Z,101340.38
2018-10-16T14:27:44.579Z,101337.36
2018-10-16T14:30:14.856Z,101338.66
2018-10-16T14:32:44.091Z,101334.76
2018-10-16T14:35:13.581Z,101332.20
2018-10-16T14:37:42.603Z,101329.69
2018-10-16T14:40:13.690Z,101328.74
2018-10-16T14:42:43.091Z,101329.63
2018-10-16T14:45:12.972Z,101337.11
2018-10-16T14:47:41.937Z,101330.30
2018-10-16T14:50:12.019Z,101335.98
2018-10-16T14:52:41.025Z,101323.86
2018-10-16T14:55:10.010Z,101324.30
2018-10-16T14:57:39.791Z,101329.94
2018-10-16T15:00:10.337Z,101329.16
2018-10-16T15:02:39.332Z,101333.06
2018-10-16T15:05:09.131Z,101331.41
2018-10-16T15:07:38.230Z,101331.88
2018-10-16T15:10:07.853Z,101337.08
2018-10-16T15:12:36.877Z,101344.38
2018-10-16T15:15:07.316Z,101335.30
2018-10-16T15:17:36.295Z,101319.42
2018-10-16T15:20:07.286Z,101327.59
2018-10-16T15:22:36.255Z,101329.82
2018-10-16T15:25:06.671Z,101330.78
2018-10-16T15:27:36.223Z,101333.73
2018-10-16T15:30:07.080Z,101335.73
2018-10-16T15:32:36.063Z,101333.55
2018-10-16T15:35:05.991Z,101330.59
2018-10-16T15:37:34.971Z,101331.41
2018-10-16T15:40:04.295Z,101328.03
2018-10-16T15:42:33.295Z,101327.59
2018-10-16T15:45:02.248Z,101323.77
2018-10-16T15:47:31.497Z,101318.22
2018-10-16T15:50:00.443Z,101313.45
2018-10-16T15:52:29.439Z,101313.22
2018-10-16T15:54:58.401Z,101315.11
2018-10-16T15:57:27.450Z,101316.42
2018-10-16T15:59:56.520Z,101315.83
2018-10-16T16:02:25.745Z,101322.75
2018-10-16T16:04:54.824Z,101314.63
2018-10-16T16:07:23.785Z,101318.61
2018-10-16T16:09:52.844Z,101323.77
2018-10-16T16:12:21.837Z,101322.81
2018-10-16T16:14:50.880Z,101327.58
2018-10-16T16:17:20.455Z,101332.44
2018-10-16T16:19:49.493Z,101333.75
2018-10-16T16:22:18.569Z,101333.30
2018-10-16T16:24:47.572Z,101338.91
2018-10-16T16:27:16.544Z,101329.44
2018-10-16T16:29:45.570Z,101331.59
2018-10-16T16:32:14.635Z,101333.45
2018-10-16T16:34:43.603Z,101335.63
2018-10-16T16:37:12.580Z,101338.22
2018-10-16T16:39:41.569Z,101334.94
2018-10-16T16:42:10.688Z,101346.18
2018-10-16T16:44:39.624Z,101349.26
2018-10-16T16:47:08.663Z,101352.67
2018-10-16T16:49:37.659Z,101351.80
2018-10-16T16:52:06.705Z,101350.51
2018-10-16T16:54:35.816Z,101348.34
2018-10-16T16:57:05.064Z,101347.96
2018-10-16T16:59:34.050Z,101346.67
2018-10-16T17:02:03.016Z,101350.19
2018-10-16T17:04:32.095Z,101352.80
2018-10-16T17:07:01.014Z,101357.98
2018-10-16T17:09:30.047Z,101361.05
2018-10-16T17:11:59.138Z,101356.73
2018-10-16T17:14:28.466Z,101359.33
2018-10-16T17:16:57.431Z,101358.95
2018-10-16T17:19:26.387Z,101354.64
2018-10-16T17:21:55.415Z,101359.44
2018-10-16T17:24:24.479Z,101356.47
2018-10-16T17:26:53.515Z,101364.20
2018-10-16T17:29:22.541Z,101367.27
2018-10-16T17:31:51.486Z,101364.25
2018-10-16T17:34:20.507Z,101365.98
2018-10-16T17:36:49.442Z,101361.77
2018-10-16T17:39:18.374Z,101360.90
2018-10-16T17:41:47.429Z,101362.63
2018-10-16T17:44:16.360Z,101369.06
2018-10-16T17:46:45.307Z,101364.68
2018-10-16T17:49:14.266Z,101362.47
2018-10-16T17:51:43.290Z,101361.55
2018-10-16T17:54:12.212Z,101366.73
2018-10-16T17:56:41.163Z,101367.17
2018-10-16T17:59:10.084Z,101364.57
2018-10-16T18:01:39.030Z,101363.22
2018-10-16T18:04:07.986Z,101358.84
2018-10-16T18:06:36.965Z,101359.27
2018-10-16T18:09:07.064Z,101363.23
2018-10-16T18:11:36.069Z,101354.25
2018-10-16T18:14:05.842Z,101356.80
2018-10-16T18:16:35.418Z,101361.55
2018-10-16T18:19:04.426Z,101360.73
2018-10-16T18:21:33.369Z,101366.36
2018-10-16T18:24:02.316Z,101364.20
2018-10-16T18:26:31.267Z,101366.36
2018-10-16T18:29:00.191Z,101362.08
2018-10-16T18:31:29.318Z,101362.95
2018-10-16T18:33:58.272Z,101362.52
2018-10-16T18:36:27.731Z,101366.84
2018-10-16T18:38:57.064Z,101370.30
2018-10-16T18:41:26.662Z,101369.48
2018-10-16T18:43:55.609Z,101367.77
2018-10-16T18:46:24.552Z,101368.67
2018-10-16T18:48:53.559Z,101373.47
2018-10-16T18:51:22.515Z,101371.75
2018-10-16T18:53:51.555Z,101375.70
2018-10-16T18:56:20.499Z,101381.83
2018-10-16T18:58:49.468Z,101381.53
2018-10-16T19:01:18.519Z,101380.23
2018-10-16T19:03:47.489Z,101377.16
2018-10-16T19:06:16.423Z,101371.95
2018-10-16T19:08:45.382Z,101377.56
2018-10-16T19:11:14.511Z,101375.05
2018-10-16T19:13:43.702Z,101370.34
2018-10-16T19:16:12.638Z,101366.06
2018-10-16T19:18:41.651Z,101369.95
2018-10-16T19:21:10.670Z,101371.23
2018-10-16T19:23:39.634Z,101371.67
2018-10-16T19:26:08.570Z,101369.98
2018-10-16T19:28:37.619Z,101365.70
2018-10-16T19:31:06.637Z,101365.73
2018-10-16T19:33:35.582Z,101371.34
2018-10-16T19:36:04.801Z,101377.86
2018-10-16T19:38:33.762Z,101383.52
2018-10-16T19:41:02.710Z,101383.55
2018-10-16T19:43:31.659Z,101374.92
2018-10-16T19:46:00.611Z,101374.06
2018-10-16T19:48:29.659Z,101377.08
2018-10-16T19:50:59.605Z,101374.48
2018-10-16T19:53:28.650Z,101376.67
2018-10-16T19:55:57.622Z,101375.84
2018-10-16T19:58:26.572Z,101368.11
2018-10-16T20:00:55.529Z,101371.55
2018-10-16T20:03:24.491Z,101370.26
2018-10-16T20:05:53.510Z,101369.83
2018-10-16T20:08:22.460Z,101377.18
2018-10-16T20:10:51.394Z,101366.42
2018-10-16T20:13:20.390Z,101375.50
2018-10-16T20:15:49.388Z,101370.78
2018-10-16T20:18:18.360Z,101376.84
2018-10-16T20:20:47.333Z,101377.30
2018-10-16T20:23:16.278Z,101375.18
2018-10-16T20:25:45.270Z,101375.19
2018-10-16T20:28:14.203Z,101375.61
2018-10-16T20:30:43.150Z,101369.59
2018-10-16T20:33:12.095Z,101373.47
2018-10-16T20:35:41.105Z,101371.73
2018-10-16T20:38:10.128Z,101376.08
2018-10-16T20:40:39.175Z,101375.66
2018-10-16T20:43:08.144Z,101374.36
2018-10-16T20:45:37.094Z,101380.83
2018-10-16T20:48:06.246Z,101378.23
2018-10-16T20:50:35.263Z,101375.20
2018-10-16T20:53:04.747Z,101375.66
2018-10-16T20:55:33.734Z,101373.47
2018-10-16T20:58:02.766Z,101376.91
2018-10-16T21:00:31.757Z,101370.88
2018-10-16T21:03:00.715Z,101372.63
2018-10-16T21:05:29.725Z,101374.77
2018-10-16T21:07:58.630Z,101374.80
2018-10-16T21:10:27.681Z,101377.36
2018-10-16T21:12:56.632Z,101377.79
2018-10-16T21:15:25.586Z,101366.18
2018-10-16T21:17:54.558Z,101370.92
2018-10-16T21:20:23.602Z,101373.09
2018-10-16T21:22:52.548Z,101368.77
2018-10-16T21:25:21.542Z,101367.49
2018-10-16T21:27:51.419Z,101365.34
2018-10-16T21:30:26.197Z,101367.05
2018-10-16T21:32:55.162Z,101358.45
2018-10-16T21:35:24.190Z,101365.31
2018-10-16T21:37:53.141Z,101365.33
2018-10-16T21:40:22.103Z,101368.33
2018-10-16T21:42:51.187Z,101370.05
2018-10-16T21:45:20.125Z,101364.45
2018-10-16T21:47:49.246Z,101367.45
2018-10-16T21:50:18.181Z,101367.02
2018-10-16T21:52:48.206Z,101364.83
2018-10-16T21:55:17.169Z,101363.95
2018-10-16T21:57:46.229Z,101363.06
2018-10-16T22:00:20.503Z,101368.64
2018-10-16T22:02:50.430Z,101366.48
2018-10-16T22:05:21.790Z,101372.06
2018-10-16T22:07:52.551Z,101368.59
2018-10-16T22:10:22.042Z,101359.13
2018-10-16T22:12:51.274Z,101363.47
2018-10-16T22:15:20.946Z,101357.45
2018-10-16T22:17:50.468Z,101357.45
2018-10-16T22:20:19.403Z,101355.27
2018-10-16T22:22:48.385Z,101352.29
2018-10-16T22:25:18.438Z,101355.27
2018-10-16T22:27:48.229Z,101346.64
2018-10-16T22:30:17.642Z,101345.77
2018-10-16T22:32:46.650Z,101350.49
2018-10-16T22:35:15.688Z,101350.07
2018-10-16T22:37:44.630Z,101346.66
2018-10-16T22:40:13.802Z,101350.96
2018-10-16T22:42:42.998Z,101347.92
2018-10-16T22:45:11.946Z,101348.34
2018-10-16T22:47:41.006Z,101348.78
2018-10-16T22:50:11.289Z,101355.66
2018-10-16T22:52:40.282Z,101353.48
2018-10-16T22:55:09.643Z,101350.50
2018-10-16T22:57:38.889Z,101350.88
2018-10-16T23:00:13.510Z,101347.84
2018-10-16T23:02:42.939Z,101349.59
2018-10-16T23:05:12.069Z,101346.54
2018-10-16T23:07:41.094Z,101350.41
2018-10-16T23:10:10.066Z,101353.39
2018-10-16T23:12:39.031Z,101352.97
2018-10-16T23:15:08.970Z,101354.69
2018-10-16T23:17:38.077Z,101347.37
2018-10-16T23:20:08.077Z,101355.52
2018-10-16T23:22:37.033Z,101353.81
2018-10-16T23:25:06.092Z,101349.90
2018-10-16T23:27:35.402Z,101351.19
2018-10-16T23:30:04.519Z,101345.59
2018-10-16T23:32:33.486Z,101344.20
2018-10-16T23:35:02.484Z,101345.87
2018-10-16T23:37:31.442Z,101345.45
2018-10-16T23:40:00.382Z,101355.30
2018-10-16T23:42:29.337Z,101351.03
2018-10-16T23:44:58.277Z,101351.05
2018-10-16T23:47:27.229Z,101353.60
2018-10-16T23:49:56.173Z,101355.72
2018-10-16T23:52:25.116Z,101358.27
2018-10-16T23:54:54.111Z,101351.83
2018-10-16T23:57:23.097Z,101346.21
2018-10-16T23:59:52.171Z,101344.94
